Time;durP1;ratioP1;P1;durP2;ratioP2;P2;SDS_P1;SDS_P2;PMS_P1;PMS_P2;Temp;Humidity;BMP_temperature;BMP_pressure;BME280_temperature;BME280_humidity;BME280_pressure;Samples;Min_cycle;Max_cycle;Signal;HPM_P1;HPM_P2
2021/09/05 00:01:25;;;;;;;56.88;30.70;;;;;;;19.02;75.12;100852.25;5013556;28;20017;-96
2021/09/05 00:03:51;;;;;;;50.63;30.40;;;;;;;18.94;74.83;100854.84;5040034;28;20112;-96
2021/09/05 00:06:19;;;;;;;50.97;30.00;;;;;;;18.93;74.27;100861.13;5056788;28;20052;-96
2021/09/05 00:08:45;;;;;;;46.30;27.92;;;;;;;18.93;74.74;100849.66;5040458;28;20033;-96
2021/09/05 00:11:11;;;;;;;47.42;29.35;;;;;;;18.93;74.89;100847.81;5035678;28;20048;-96
2021/09/05 00:13:36;;;;;;;54.45;29.35;;;;;;;18.92;74.58;100848.81;5034548;28;20025;-96
2021/09/05 00:16:02;;;;;;;45.72;29.50;;;;;;;18.94;74.44;100846.84;5037167;28;20024;-96
2021/09/05 00:18:27;;;;;;;57.13;32.40;;;;;;;18.87;75.04;100839.59;5035468;28;20035;-96
2021/09/05 00:20:54;;;;;;;52.38;31.65;;;;;;;18.88;74.99;100847.44;5036361;28;20026;-96
2021/09/05 00:23:19;;;;;;;52.22;31.08;;;;;;;18.83;75.22;100850.53;5022098;28;20041;-96
2021/09/05 00:25:45;;;;;;;47.65;27.67;;;;;;;18.87;75.39;100845.75;5036906;28;20053;-96
2021/09/05 00:28:10;;;;;;;61.38;33.40;;;;;;;18.74;75.35;100855.84;5037939;28;20096;-96
2021/09/05 00:30:37;;;;;;;52.35;32.47;;;;;;;18.74;76.50;100856.72;5039158;28;20033;-96
2021/09/05 00:33:07;;;;;;;55.15;31.58;;;;;;;18.73;75.66;100847.03;5022901;28;20080;-96
2021/09/05 00:35:33;;;;;;;48.67;28.65;;;;;;;18.78;75.52;100851.94;5035019;28;20057;-96
2021/09/05 00:37:58;;;;;;;55.90;32.72;;;;;;;18.73;75.21;100851.53;5035372;28;20030;-96
2021/09/05 00:40:24;;;;;;;56.92;31.45;;;;;;;18.62;75.18;100842.75;5035149;28;20033;-96
2021/09/05 00:42:49;;;;;;;47.75;29.65;;;;;;;18.67;75.78;100849.47;5036533;28;20032;-96
2021/09/05 00:45:15;;;;;;;49.70;29.00;;;;;;;18.61;75.83;100841.06;5032063;28;20081;-96
2021/09/05 00:47:40;;;;;;;48.20;28.88;;;;;;;18.61;75.79;100846.41;5033424;28;20104;-96
2021/09/05 00:50:06;;;;;;;52.15;31.48;;;;;;;18.59;75.41;100840.38;5027997;28;20030;-96
2021/09/05 00:52:32;;;;;;;57.40;32.75;;;;;;;18.51;76.54;100842.94;5029162;28;20038;-96
2021/09/05 00:54:57;;;;;;;56.65;31.67;;;;;;;18.52;75.57;100841.09;5031291;28;20049;-96
2021/09/05 00:57:23;;;;;;;50.05;30.05;;;;;;;18.55;76.09;100838.16;5032476;28;20120;-96
2021/09/05 00:59:49;;;;;;;49.38;29.58;;;;;;;18.56;75.59;100838.03;5029639;28;20043;-96
2021/09/05 01:02:15;;;;;;;59.88;33.78;;;;;;;18.39;76.19;100836.13;5028219;28;20550;-96
2021/09/05 01:04:42;;;;;;;52.00;30.00;;;;;;;18.45;76.30;100829.41;5034540;28;20076;-96
2021/09/05 01:07:08;;;;;;;49.33;28.67;;;;;;;18.48;76.06;100835.22;5033281;28;20025;-96
2021/09/05 01:09:36;;;;;;;49.50;28.92;;;;;;;18.49;75.74;100830.78;5036590;28;20029;-96
2021/09/05 01:12:02;;;;;;;47.47;29.95;;;;;;;18.46;75.79;100831.88;5036157;28;20026;-96
2021/09/05 01:14:27;;;;;;;49.25;29.58;;;;;;;18.43;75.86;100832.19;5034051;28;20030;-96
2021/09/05 01:16:53;;;;;;;53.08;29.58;;;;;;;18.38;76.28;100831.78;5029175;28;20021;-96
2021/09/05 01:19:21;;;;;;;43.78;28.45;;;;;;;18.41;75.96;100831.50;5027568;28;20025;-95
2021/09/05 01:21:49;;;;;;;53.72;29.98;;;;;;;18.36;76.58;100825.78;5028850;28;20060;-96
2021/09/05 01:24:16;;;;;;;56.30;32.25;;;;;;;18.33;76.57;100826.06;5029851;28;20029;-96
2021/09/05 01:26:44;;;;;;;52.00;30.35;;;;;;;18.35;77.00;100829.44;5029291;28;20116;-96
2021/09/05 01:29:10;;;;;;;50.17;29.42;;;;;;;18.31;76.56;100833.34;5031954;28;20009;-96
2021/09/05 01:31:43;;;;;;;51.80;30.13;;;;;;;18.37;77.15;100828.28;5031516;28;20017;-96
2021/09/05 01:34:11;;;;;;;51.67;30.35;;;;;;;18.23;77.27;100815.47;5034566;28;20021;-96
2021/09/05 01:36:37;;;;;;;48.65;28.35;;;;;;;18.32;77.23;100821.72;5037021;28;20049;-96
2021/09/05 01:39:04;;;;;;;48.47;26.30;;;;;;;18.31;77.13;100822.72;5031277;28;20089;-96
2021/09/05 01:41:31;;;;;;;42.78;27.10;;;;;;;18.35;76.59;100826.75;5021303;28;20022;-96
2021/09/05 01:44:04;;;;;;;42.20;25.50;;;;;;;18.45;75.99;100824.91;5020583;28;20112;-96
2021/09/05 01:46:30;;;;;;;44.83;24.85;;;;;;;18.35;75.62;100821.44;5020952;28;20029;-96
2021/09/05 01:48:56;;;;;;;45.22;27.08;;;;;;;18.20;76.13;100823.72;5004470;28;20080;-96
2021/09/05 01:51:21;;;;;;;42.17;24.83;;;;;;;18.31;75.65;100828.03;5003401;28;20083;-96
2021/09/05 01:53:47;;;;;;;38.65;22.92;;;;;;;18.34;75.20;100833.03;5005384;28;20002;-96
2021/09/05 01:56:12;;;;;;;41.08;24.13;;;;;;;18.39;74.72;100836.13;5015835;28;20025;-96
2021/09/05 01:58:38;;;;;;;38.47;24.10;;;;;;;18.41;74.49;100836.81;5014769;28;20026;-96
2021/09/05 02:01:04;;;;;;;38.95;22.45;;;;;;;18.37;74.13;100835.44;5022296;28;20076;-96
2021/09/05 02:03:29;;;;;;;40.25;23.52;;;;;;;18.43;73.78;100842.81;5017787;28;20037;-96
2021/09/05 02:05:55;;;;;;;44.60;24.13;;;;;;;18.34;74.18;100838.38;5018063;28;20029;-96
2021/09/05 02:08:20;;;;;;;37.78;24.02;;;;;;;18.37;74.15;100854.03;4998059;28;20030;-96
2021/09/05 02:10:47;;;;;;;37.83;22.23;;;;;;;18.36;73.81;100837.22;5017995;28;20032;-96
2021/09/05 02:13:12;;;;;;;42.95;24.08;;;;;;;18.30;74.22;100836.97;5017229;28;20026;-96
2021/09/05 02:15:38;;;;;;;35.33;22.05;;;;;;;18.36;73.51;100841.72;5014415;28;20030;-96
2021/09/05 02:18:05;;;;;;;34.03;23.95;;;;;;;18.30;73.73;100844.94;5016509;28;20018;-96
2021/09/05 02:20:31;;;;;;;37.75;23.17;;;;;;;18.35;74.13;100840.88;5038280;28;20025;-96
2021/09/05 02:22:57;;;;;;;35.22;22.00;;;;;;;18.35;73.25;100837.41;5003150;28;20021;-96
2021/09/05 02:25:22;;;;;;;35.58;22.40;;;;;;;18.37;72.93;100843.41;5033271;28;20036;-96
2021/09/05 02:27:48;;;;;;;40.50;24.77;;;;;;;18.36;73.46;100841.72;5032351;28;20038;-96
2021/09/05 02:30:13;;;;;;;32.03;21.38;;;;;;;18.39;73.22;100846.75;5032355;28;20063;-96
2021/09/05 02:32:40;;;;;;;35.08;21.20;;;;;;;18.34;73.27;100843.69;5036586;28;20033;-96
2021/09/05 02:35:08;;;;;;;39.58;22.20;;;;;;;18.32;73.35;100846.47;5038098;28;20068;-96
2021/09/05 02:37:37;;;;;;;31.75;22.02;;;;;;;18.26;72.91;100843.56;5022128;28;20037;-96
2021/09/05 02:40:05;;;;;;;36.60;22.25;;;;;;;18.21;73.34;100836.03;5054292;28;20026;-96
2021/09/05 02:42:33;;;;;;;40.92;24.50;;;;;;;18.18;73.76;100838.97;5036116;28;20028;-96
2021/09/05 02:45:06;;;;;;;40.08;26.15;;;;;;;18.15;74.32;100845.41;5056067;28;20025;-96
2021/09/05 02:47:33;;;;;;;44.38;26.38;;;;;;;18.08;74.25;100854.91;5038956;28;20026;-96
2021/09/05 02:50:05;;;;;;;44.58;28.25;;;;;;;18.08;74.65;100838.16;5040237;28;20036;-96
2021/09/05 02:52:51;;;;;;;50.80;28.05;;;;;;;18.24;74.74;100844.53;5022848;28;20041;-96
2021/09/05 02:55:17;;;;;;;50.55;27.23;;;;;;;18.05;74.97;100839.28;5019732;28;20093;-96
2021/09/05 02:57:45;;;;;;;45.30;27.15;;;;;;;18.12;74.89;100840.38;5018803;28;20022;-96
2021/09/05 03:00:13;;;;;;;47.75;29.13;;;;;;;18.07;74.90;100847.94;5004285;28;20026;-96
2021/09/05 03:02:39;;;;;;;50.17;28.45;;;;;;;18.01;75.02;100844.03;5017421;28;20034;-96
2021/09/05 03:05:30;;;;;;;54.17;29.70;;;;;;;18.02;74.98;100844.88;5001891;28;20037;-96
2021/09/05 03:08:35;;;;;;;48.22;29.60;;;;;;;17.88;75.34;100837.34;5036892;28;20010;-96
2021/09/05 03:11:04;;;;;;;51.05;30.15;;;;;;;17.92;75.70;100846.69;5018680;28;20037;-96
2021/09/05 03:13:33;;;;;;;49.90;29.67;;;;;;;17.91;75.10;100842.34;5016964;28;20042;-96
2021/09/05 03:15:58;;;;;;;57.90;29.35;;;;;;;17.83;76.17;100837.72;4997714;28;20042;-96
2021/09/05 03:18:24;;;;;;;43.08;25.63;;;;;;;17.86;75.76;100834.81;5030305;28;20033;-96
2021/09/05 03:20:53;;;;;;;44.45;27.00;;;;;;;17.85;75.29;100827.81;5015564;28;20033;-96
2021/09/05 03:23:19;;;;;;;46.55;29.83;;;;;;;17.73;75.89;100829.78;5018897;28;20026;-96
2021/09/05 03:25:45;;;;;;;50.63;28.40;;;;;;;17.63;76.79;100835.09;5017715;28;20044;-96
2021/09/05 03:28:10;;;;;;;42.13;26.92;;;;;;;17.76;75.93;100826.81;5001612;28;20079;-96
2021/09/05 03:30:35;;;;;;;41.30;25.13;;;;;;;17.72;75.63;100821.94;5028862;28;20036;-96
2021/09/05 03:33:01;;;;;;;45.88;25.83;;;;;;;17.62;75.50;100819.28;5055353;28;20069;-95
2021/09/05 03:35:28;;;;;;;44.28;24.95;;;;;;;17.70;75.85;100819.41;5037021;28;20031;-96
2021/09/05 03:37:53;;;;;;;34.58;22.00;;;;;;;17.65;75.78;100816.34;5021427;28;20037;-95
2021/09/05 03:40:19;;;;;;;39.35;23.50;;;;;;;17.67;75.91;100817.03;5018542;28;20030;-96
2021/09/05 03:42:45;;;;;;;40.13;23.15;;;;;;;17.72;75.40;100821.94;5018614;28;20021;-96
2021/09/05 03:45:10;;;;;;;38.00;24.42;;;;;;;17.67;75.39;100814.38;5012207;28;20476;-95
2021/09/05 03:47:36;;;;;;;41.03;23.55;;;;;;;17.59;75.40;100817.72;4999198;28;20033;-95
2021/09/05 03:50:01;;;;;;;43.25;24.27;;;;;;;17.45;76.49;100818.97;4999068;28;20022;-95
2021/09/05 03:52:28;;;;;;;38.67;24.30;;;;;;;17.59;75.90;100822.22;4998787;28;20048;-95
2021/09/05 03:54:54;;;;;;;46.40;25.38;;;;;;;17.53;76.25;100820.13;4999020;28;20396;-96
2021/09/05 03:57:19;;;;;;;39.50;24.27;;;;;;;17.50;75.39;100817.75;4999089;28;20029;-95
2021/09/05 03:59:44;;;;;;;38.78;24.10;;;;;;;17.57;75.70;100824.16;4998707;28;20029;-95
2021/09/05 04:02:10;;;;;;;33.33;21.35;;;;;;;17.57;75.85;100813.53;5017052;28;20036;-96
2021/09/05 04:04:35;;;;;;;36.30;23.00;;;;;;;17.57;75.63;100813.53;5017963;28;20387;-94
2021/09/05 04:07:01;;;;;;;36.80;23.15;;;;;;;17.55;76.01;100811.03;5017978;28;20028;-96
2021/09/05 04:12:12;;;;;;;37.50;22.23;;;;;;;17.59;75.81;100820.38;5035871;28;20091;-96
2021/09/05 04:14:37;;;;;;;37.83;23.50;;;;;;;17.53;75.33;100823.59;5017387;28;20017;-95
2021/09/05 04:17:03;;;;;;;36.08;21.88;;;;;;;17.50;75.73;100823.06;5001494;28;20052;-95
2021/09/05 04:19:28;;;;;;;35.20;22.05;;;;;;;17.47;76.15;100840.09;5017729;28;20037;-95
2021/09/05 04:21:53;;;;;;;35.28;22.63;;;;;;;17.49;76.48;100838.13;5013387;28;20037;-95
2021/09/05 04:24:19;;;;;;;33.20;20.13;;;;;;;17.50;75.98;100831.03;4998097;28;20123;-95
2021/09/05 04:26:45;;;;;;;32.30;21.38;;;;;;;17.45;75.26;100826.94;4998168;28;20145;-96
2021/09/05 04:29:11;;;;;;;33.75;20.25;;;;;;;17.47;75.35;100834.78;4998261;28;20029;-96
2021/09/05 04:31:36;;;;;;;31.23;19.13;;;;;;;17.41;76.09;100838.81;4997981;28;20132;-96
2021/09/05 04:34:01;;;;;;;39.58;21.75;;;;;;;17.40;75.80;100844.28;4998064;28;20030;-96
2021/09/05 04:36:27;;;;;;;28.55;19.35;;;;;;;17.40;75.92;100836.34;4997777;28;20098;-95
2021/09/05 04:38:52;;;;;;;26.27;18.23;;;;;;;17.43;75.73;100834.22;4998113;28;20492;-95
2021/09/05 04:41:17;;;;;;;32.33;18.88;;;;;;;17.39;75.93;100845.25;4998078;28;20076;-95
2021/09/05 04:43:43;;;;;;;34.80;20.88;;;;;;;17.45;75.71;100848.19;4997890;28;20099;-95
2021/09/05 04:46:08;;;;;;;33.05;19.90;;;;;;;17.47;75.28;100849.88;4997731;28;20037;-95
2021/09/05 04:48:33;;;;;;;28.30;19.02;;;;;;;17.38;75.32;100857.69;5009927;28;20025;-95
2021/09/05 04:50:59;;;;;;;29.10;18.83;;;;;;;17.39;75.04;100853.22;5017359;28;20540;-96
2021/09/05 04:53:24;;;;;;;32.63;20.00;;;;;;;17.37;75.51;100857.81;5017151;28;20025;-96
2021/09/05 04:55:50;;;;;;;31.10;19.75;;;;;;;17.30;76.43;100848.72;5017060;28;20491;-96
2021/09/05 04:58:15;;;;;;;25.88;18.48;;;;;;;17.27;76.37;100855.16;5018080;28;20507;-95
2021/09/05 05:00:40;;;;;;;30.52;19.23;;;;;;;17.22;77.76;100852.09;5015477;28;20013;-95
2021/09/05 05:03:05;;;;;;;31.73;20.05;;;;;;;17.14;77.45;100844.81;5016949;28;20041;-96
2021/09/05 05:05:31;;;;;;;28.05;18.13;;;;;;;17.24;77.00;100850.97;5017038;28;20036;-96
2021/09/05 05:07:56;;;;;;;28.80;16.65;;;;;;;17.23;76.04;100851.09;5034814;28;20476;-95
2021/09/05 05:10:22;;;;;;;29.92;19.00;;;;;;;17.16;76.71;100844.66;5016915;28;20048;-95
2021/09/05 05:12:48;;;;;;;29.48;18.85;;;;;;;17.17;76.27;100849.00;5016764;28;20408;-96
2021/09/05 05:15:13;;;;;;;25.77;17.42;;;;;;;17.12;76.16;100851.19;5012954;28;20026;-95
2021/09/05 05:17:39;;;;;;;24.08;17.55;;;;;;;17.13;76.74;100848.41;4998812;28;20030;-96
2021/09/05 05:20:04;;;;;;;29.92;17.58;;;;;;;17.12;76.55;100846.75;4997183;28;20032;-96
2021/09/05 05:22:30;;;;;;;30.27;18.80;;;;;;;17.07;76.34;100858.75;4997132;28;20542;-96
2021/09/05 05:24:55;;;;;;;27.77;17.33;;;;;;;17.13;76.21;100874.13;4997211;28;20107;-96
2021/09/05 05:27:21;;;;;;;26.13;17.73;;;;;;;17.10;76.26;100869.06;4997066;28;20049;-96
2021/09/05 05:29:46;;;;;;;29.35;17.67;;;;;;;17.08;75.93;100865.72;4997146;28;20022;-95
2021/09/05 05:32:11;;;;;;;29.80;16.95;;;;;;;17.05;76.49;100872.97;4998249;28;20060;-96
2021/09/05 05:34:37;;;;;;;28.40;15.65;;;;;;;17.06;76.81;100879.09;4997057;28;20029;-96
2021/09/05 05:37:03;;;;;;;25.58;16.33;;;;;;;17.08;77.01;100884.28;4997096;28;20125;-95
2021/09/05 05:39:30;;;;;;;21.45;16.08;;;;;;;17.08;77.38;100890.44;4996906;28;20066;-95
2021/09/05 05:41:55;;;;;;;23.75;15.77;;;;;;;17.08;78.27;100903.72;4996772;28;20030;-96
2021/09/05 05:44:20;;;;;;;26.77;18.30;;;;;;;17.14;78.23;100907.63;4996774;28;20088;-95
2021/09/05 05:46:46;;;;;;;27.35;18.05;;;;;;;17.15;78.36;100904.00;4996860;28;20018;-96
2021/09/05 05:49:11;;;;;;;30.33;18.60;;;;;;;17.24;78.53;100914.66;4996839;28;20087;-96
2021/09/05 05:51:36;;;;;;;28.67;18.20;;;;;;;17.32;78.96;100913.97;4996784;28;20567;-96
2021/09/05 05:54:02;;;;;;;26.77;17.13;;;;;;;17.39;78.63;100917.75;4996676;28;20384;-96
2021/09/05 05:56:27;;;;;;;23.17;16.15;;;;;;;17.45;79.26;100917.22;4996496;28;20030;-95
2021/09/05 05:58:52;;;;;;;24.13;16.60;;;;;;;17.48;78.87;100921.41;4996608;28;20026;-95
2021/09/05 06:01:18;;;;;;;28.42;16.50;;;;;;;17.53;78.71;100913.88;4997339;28;20482;-95
2021/09/05 06:03:43;;;;;;;24.73;16.40;;;;;;;17.59;78.33;100913.31;4997225;28;20030;-96
2021/09/05 06:06:08;;;;;;;29.80;18.67;;;;;;;17.66;78.43;100918.09;4996272;28;20022;-95
2021/09/05 06:08:34;;;;;;;24.67;16.85;;;;;;;17.71;78.20;100922.00;4996250;28;20473;-94
2021/09/05 06:10:59;;;;;;;31.52;18.60;;;;;;;17.69;78.92;100917.81;4996375;28;20050;-95
2021/09/05 06:13:25;;;;;;;29.65;18.35;;;;;;;17.76;77.97;100924.25;4995770;28;20085;-95
2021/09/05 06:15:50;;;;;;;36.45;20.38;;;;;;;17.84;77.89;100927.09;4995455;28;20423;-94
2021/09/05 06:18:16;;;;;;;33.55;19.15;;;;;;;17.92;77.28;100923.75;4995985;28;20030;-94
2021/09/05 06:20:41;;;;;;;32.92;19.67;;;;;;;17.93;77.90;100928.06;5000513;28;20018;-96
2021/09/05 06:23:06;;;;;;;34.38;20.27;;;;;;;17.92;77.10;100926.41;5017765;28;20025;-94
2021/09/05 06:25:32;;;;;;;35.92;21.20;;;;;;;17.98;77.18;100923.19;5038036;28;20112;-96
2021/09/05 06:27:57;;;;;;;27.83;18.30;;;;;;;18.12;77.08;100930.72;5022676;28;20025;-95
2021/09/05 06:30:23;;;;;;;33.00;19.13;;;;;;;18.16;75.86;100925.97;5030207;28;20499;-96
2021/09/05 06:32:48;;;;;;;35.63;20.63;;;;;;;18.06;76.56;100938.44;5017731;28;20030;-96
2021/09/05 06:35:13;;;;;;;40.58;21.35;;;;;;;17.98;77.17;100936.47;5014542;28;20037;-96
2021/09/05 06:37:39;;;;;;;29.25;18.83;;;;;;;18.01;77.67;100944.16;5030860;28;20056;-95
2021/09/05 06:40:05;;;;;;;37.03;20.27;;;;;;;18.23;76.72;100940.38;5027577;28;20018;-96
2021/09/05 06:42:30;;;;;;;35.00;20.33;;;;;;;18.31;75.91;100937.84;4984454;28;20493;-95
2021/09/05 06:44:56;;;;;;;32.65;19.17;;;;;;;18.35;75.62;100944.56;4999718;28;20093;-96
2021/09/05 06:47:21;;;;;;;36.00;21.83;;;;;;;18.31;75.88;100935.19;5003205;28;20076;-96
2021/09/05 06:49:47;;;;;;;32.83;20.60;;;;;;;18.44;75.29;100934.88;5017880;28;20537;-95
2021/09/05 06:52:12;;;;;;;35.80;21.65;;;;;;;18.49;74.66;100942.47;5035335;28;20072;-96
2021/09/05 06:54:38;;;;;;;35.83;22.42;;;;;;;18.49;75.01;100937.97;5015847;28;20501;-96
2021/09/05 06:57:06;;;;;;;39.63;22.02;;;;;;;18.51;75.02;100949.31;5003310;28;20092;-96
2021/09/05 06:59:31;;;;;;;36.63;22.58;;;;;;;18.56;75.03;100947.06;4997157;28;20089;-96
2021/09/05 07:01:56;;;;;;;37.13;22.40;;;;;;;18.58;75.03;100958.41;5003207;28;20049;-95
2021/09/05 07:04:22;;;;;;;39.45;23.88;;;;;;;18.60;74.74;100956.44;4998884;28;20026;-96
2021/09/05 07:06:47;;;;;;;43.35;24.40;;;;;;;18.59;75.62;100962.72;4996883;28;20033;-96
2021/09/05 07:09:13;;;;;;;47.47;23.90;;;;;;;18.57;75.11;100963.84;5022572;28;20097;-96
2021/09/05 07:11:38;;;;;;;39.63;22.95;;;;;;;18.61;75.47;100959.91;5017432;28;20022;-95
2021/09/05 07:14:03;;;;;;;43.83;24.35;;;;;;;18.61;75.35;100958.09;5014411;28;20053;-96
2021/09/05 07:16:29;;;;;;;42.85;25.17;;;;;;;18.61;74.84;100966.06;5014077;28;20116;-93
2021/09/05 07:18:54;;;;;;;43.33;24.02;;;;;;;18.72;74.72;100977.53;5012811;28;20021;-94
2021/09/05 07:21:20;;;;;;;44.40;24.80;;;;;;;18.78;74.51;100983.13;5013379;28;20026;-95
2021/09/05 07:23:45;;;;;;;40.83;25.52;;;;;;;18.83;73.04;100982.72;5012699;28;20064;-96
2021/09/05 07:26:10;;;;;;;37.65;24.45;;;;;;;18.86;74.47;100986.91;5011815;28;20539;-95
2021/09/05 07:28:36;;;;;;;45.88;24.77;;;;;;;18.78;74.56;100977.81;5011310;28;20022;-96
2021/09/05 07:31:03;;;;;;;44.60;26.17;;;;;;;18.86;74.22;100979.78;5010827;28;20026;-95
2021/09/05 07:33:29;;;;;;;45.60;25.40;;;;;;;18.76;75.06;100993.06;5010695;28;20395;-95
2021/09/05 07:35:54;;;;;;;45.67;25.50;;;;;;;18.75;75.48;100980.75;5017236;28;20018;-95
2021/09/05 07:38:20;;;;;;;47.28;25.90;;;;;;;18.81;75.21;100990.00;5016257;28;20036;-95
2021/09/05 07:40:46;;;;;;;45.08;27.20;;;;;;;18.90;74.32;100994.47;5015248;28;20025;-95
2021/09/05 07:43:11;;;;;;;48.53;27.60;;;;;;;18.90;74.44;100993.63;5016225;28;20032;-93
2021/09/05 07:45:37;;;;;;;42.53;24.35;;;;;;;18.85;74.90;100988.72;5003767;28;20057;-96
2021/09/05 07:48:02;;;;;;;47.42;27.35;;;;;;;18.97;74.09;100997.38;4994577;28;20692;-94
2021/09/05 07:50:28;;;;;;;45.55;25.95;;;;;;;18.97;74.27;101003.53;5010008;28;20034;-95
2021/09/05 07:52:53;;;;;;;50.72;26.67;;;;;;;18.86;75.02;101008.19;5014574;28;20495;-95
2021/09/05 07:55:19;;;;;;;47.55;26.58;;;;;;;18.93;74.02;100998.66;5009346;28;20060;-94
2021/09/05 07:57:44;;;;;;;49.20;26.98;;;;;;;18.96;75.13;101001.03;5012775;28;20381;-94
2021/09/05 08:00:10;;;;;;;50.03;28.80;;;;;;;19.13;75.57;101007.41;5004723;28;20084;-96
2021/09/05 08:02:35;;;;;;;48.15;26.75;;;;;;;19.22;74.81;101006.56;5000182;28;20044;-96
2021/09/05 08:05:01;;;;;;;44.83;25.20;;;;;;;19.30;74.34;100995.19;5006859;28;20021;-95
2021/09/05 08:07:26;;;;;;;46.05;27.15;;;;;;;19.42;73.56;101005.47;5013850;28;20451;-95
2021/09/05 08:09:52;;;;;;;46.67;26.08;;;;;;;19.59;72.50;101003.03;5016627;28;20029;-95
2021/09/05 08:12:17;;;;;;;52.15;27.08;;;;;;;19.52;72.61;101008.09;5018621;28;20131;-96
2021/09/05 08:14:42;;;;;;;50.38;28.42;;;;;;;19.53;72.43;101008.94;5016034;28;20041;-96
2021/09/05 08:17:08;;;;;;;49.58;28.10;;;;;;;19.45;72.40;101012.34;5018954;28;20514;-96
2021/09/05 08:19:33;;;;;;;47.40;25.42;;;;;;;19.44;72.24;101010.66;5017425;28;20486;-96
2021/09/05 08:21:59;;;;;;;52.42;27.48;;;;;;;19.39;72.84;101013.78;5006422;28;20081;-96
2021/09/05 08:24:24;;;;;;;48.03;26.92;;;;;;;19.48;73.18;101016.53;5010716;28;20029;-95
2021/09/05 08:26:50;;;;;;;42.20;24.90;;;;;;;19.62;72.28;101026.69;5017628;28;20033;-95
2021/09/05 08:29:15;;;;;;;50.03;27.70;;;;;;;19.72;72.71;101032.00;5011568;28;20027;-96
2021/09/05 08:31:41;;;;;;;43.55;24.25;;;;;;;19.83;71.70;101029.16;5023854;28;20033;-96
2021/09/05 08:46:55;;;;;;;47.03;27.95;;;;;;;20.13;71.05;101027.97;4990810;28;20074;-96
2021/09/05 08:49:32;;;;;;;47.30;27.85;;;;;;;20.24;70.15;101026.91;4996521;28;20042;-96
2021/09/05 08:51:57;;;;;;;45.97;24.48;;;;;;;20.18;70.45;101022.16;4992197;28;20034;-94
2021/09/05 08:54:23;;;;;;;42.35;25.38;;;;;;;20.25;69.97;101022.41;4994697;28;20041;-95
2021/09/05 08:56:51;;;;;;;48.05;26.13;;;;;;;20.38;69.84;101030.88;4989953;28;20031;-94
2021/09/05 08:59:17;;;;;;;50.50;25.88;;;;;;;20.33;69.50;101015.31;5446734;23;20042;-95
2021/09/05 09:02:02;;;;;;;42.95;25.55;;;;;;;20.66;68.94;101042.31;5010331;28;20156;-96
2021/09/05 09:04:36;;;;;;;47.17;26.58;;;;;;;20.64;68.93;101040.78;5004697;28;20053;-89
2021/09/05 09:07:24;;;;;;;47.90;24.83;;;;;;;20.80;68.17;101043.56;5003982;28;20389;-96
2021/09/05 09:10:01;;;;;;;47.38;27.98;;;;;;;20.76;68.55;101042.22;4988102;28;20023;-96
2021/09/05 09:12:40;;;;;;;48.95;27.35;;;;;;;20.84;68.23;101042.28;5002381;28;20036;-96
2021/09/05 09:15:21;;;;;;;48.70;28.65;;;;;;;20.90;67.42;101036.31;4989205;28;20006;-95
2021/09/05 09:18:05;;;;;;;42.45;24.85;;;;;;;20.93;67.89;101033.34;4974401;28;20031;-95
2021/09/05 09:20:41;;;;;;;50.35;28.95;;;;;;;20.78;68.56;101033.03;4984531;28;20038;-96
2021/09/05 09:23:14;;;;;;;42.83;26.25;;;;;;;20.90;67.37;101033.63;4986670;28;20117;-96
2021/09/05 09:25:55;;;;;;;42.75;25.65;;;;;;;20.96;67.72;101033.00;4985349;28;20093;-96
2021/09/05 09:28:27;;;;;;;50.77;28.50;;;;;;;21.11;67.37;101038.63;5001364;28;20061;-96
2021/09/05 09:30:53;;;;;;;52.38;28.35;;;;;;;20.97;67.63;101034.69;4984382;28;20352;-96
2021/09/05 09:33:23;;;;;;;53.83;29.52;;;;;;;21.30;66.58;101034.88;4984299;28;20037;-95
2021/09/05 09:35:54;;;;;;;50.15;28.55;;;;;;;21.34;66.65;101038.88;4984518;28;20351;-96
2021/09/05 09:38:24;;;;;;;41.75;25.60;;;;;;;21.36;66.64;101039.56;4989526;28;20046;-96
2021/09/05 09:40:50;;;;;;;45.15;25.38;;;;;;;21.39;66.74;101033.09;4953332;28;20094;-96
2021/09/05 09:43:22;;;;;;;48.17;28.23;;;;;;;21.48;66.49;101034.81;4967601;28;20023;-96
2021/09/05 09:45:50;;;;;;;48.20;28.35;;;;;;;21.42;66.38;101037.28;4981900;28;20097;-96
2021/09/05 09:48:25;;;;;;;46.85;26.83;;;;;;;21.66;66.07;101032.03;4987568;28;20057;-96
2021/09/05 09:50:58;;;;;;;47.67;28.50;;;;;;;21.66;65.70;101034.72;5000571;28;20026;-93
2021/09/05 09:53:24;;;;;;;43.50;26.33;;;;;;;21.62;65.47;101030.69;4997260;28;20034;-93
2021/09/05 09:55:49;;;;;;;53.90;28.90;;;;;;;21.66;65.59;101040.06;4995987;28;20045;-93
2021/09/05 09:58:15;;;;;;;51.13;29.63;;;;;;;21.51;65.41;101037.19;4997089;28;20025;-93
2021/09/05 10:00:41;;;;;;;50.22;29.88;;;;;;;21.54;65.46;101020.84;4973179;28;20497;-94
2021/09/05 10:03:08;;;;;;;43.72;26.27;;;;;;;21.72;65.12;101034.09;4979240;28;20053;-94
2021/09/05 10:05:34;;;;;;;52.72;30.75;;;;;;;21.62;65.37;101024.53;4977461;28;20033;-95
2021/09/05 10:07:59;;;;;;;52.75;30.20;;;;;;;21.70;65.84;101033.41;4999217;28;20018;-95
2021/09/05 10:10:25;;;;;;;56.67;32.28;;;;;;;21.70;65.64;101036.09;4998879;28;20481;-94
2021/09/05 10:12:54;;;;;;;48.83;29.15;;;;;;;21.87;64.85;101041.50;4993552;28;20156;-96
2021/09/05 10:15:21;;;;;;;52.00;29.30;;;;;;;21.96;64.39;101045.88;4982472;28;20022;-96
2021/09/05 10:17:52;;;;;;;55.92;28.42;;;;;;;21.93;64.22;101041.66;5004020;28;20014;-96
2021/09/05 10:20:18;;;;;;;47.83;29.40;;;;;;;21.97;64.62;101044.84;4967792;28;20038;-93
2021/09/05 10:22:44;;;;;;;43.00;28.00;;;;;;;22.04;65.13;101045.88;4998578;28;20033;-96
2021/09/05 10:25:10;;;;;;;47.78;28.58;;;;;;;22.28;63.49;101049.63;4981148;28;20022;-95
2021/09/05 10:27:38;;;;;;;48.95;29.63;;;;;;;22.34;63.63;101048.97;4982723;28;20022;-95
2021/09/05 10:30:07;;;;;;;48.75;29.30;;;;;;;22.47;63.90;101045.78;4971185;28;20469;-96
2021/09/05 10:32:52;;;;;;;51.35;29.15;;;;;;;22.63;62.91;101050.31;4994840;28;20117;-96
2021/09/05 10:35:45;;;;;;;49.10;28.40;;;;;;;22.84;62.28;101050.63;4978244;28;20046;-96
2021/09/05 10:38:43;;;;;;;50.92;29.85;;;;;;;22.66;62.00;101048.13;4965140;28;20022;-96
2021/09/05 10:41:07;;;;;;;53.63;29.67;;;;;;;22.94;61.48;101050.44;4989892;28;20034;-96
2021/09/05 10:43:51;;;;;;;52.60;31.38;;;;;;;23.08;61.53;101041.75;4988929;28;20033;-96
2021/09/05 10:46:27;;;;;;;50.00;30.40;;;;;;;23.07;61.08;101044.63;4983150;28;20400;-96
2021/09/05 10:48:57;;;;;;;50.38;29.98;;;;;;;23.05;60.98;101043.94;4967388;28;20046;-96
2021/09/05 10:51:25;;;;;;;48.40;30.55;;;;;;;22.86;61.23;101037.91;4970594;28;20026;-96
2021/09/05 10:53:52;;;;;;;49.60;28.98;;;;;;;23.10;61.50;101029.00;4976372;28;20049;-96
2021/09/05 10:56:20;;;;;;;46.90;28.40;;;;;;;23.52;60.58;101035.09;4979714;28;20034;-95
2021/09/05 10:58:57;;;;;;;45.03;26.05;;;;;;;23.72;60.48;101027.47;4981705;28;20090;-96
2021/09/05 11:01:26;;;;;;;41.75;25.83;;;;;;;24.05;59.94;101038.88;4982552;28;20026;-96
2021/09/05 11:04:13;;;;;;;45.22;29.92;;;;;;;24.19;58.80;101028.38;4980193;28;20026;-96
2021/09/05 11:06:43;;;;;;;37.88;25.10;;;;;;;24.38;58.74;101022.53;4993737;28;20026;-96
2021/09/05 11:09:17;;;;;;;45.20;27.83;;;;;;;24.60;57.04;101025.41;4978458;28;20029;-95
2021/09/05 11:12:00;;;;;;;41.00;26.73;;;;;;;24.93;56.38;101034.81;4994944;28;20034;-96
2021/09/05 11:14:37;;;;;;;38.20;24.40;;;;;;;25.05;55.36;101031.69;4996238;28;20023;-95
2021/09/05 11:17:08;;;;;;;38.83;24.75;;;;;;;24.97;56.11;101029.94;4978407;28;20052;-94
2021/09/05 11:20:07;;;;;;;44.85;27.35;;;;;;;25.00;55.46;101026.88;4980489;28;20057;-94
2021/09/05 11:22:43;;;;;;;40.00;25.58;;;;;;;25.03;54.95;101017.63;4979086;28;20469;-96
2021/09/05 11:25:21;;;;;;;40.45;26.83;;;;;;;25.26;55.85;101025.63;4998142;28;20022;-94
2021/09/05 11:28:10;;;;;;;39.63;25.02;;;;;;;25.35;54.29;101032.56;4998340;28;20031;-96